Time;durP1;ratioP1;P1;durP2;ratioP2;P2;SDS_P1;SDS_P2;PMS_P1;PMS_P2;Temp;Humidity;BMP_temperature;BMP_pressure;BME280_temperature;BME280_humidity;BME280_pressure;Samples;Min_cycle;Max_cycle;Signal;HPM_P1;HPM_P2
2021/12/23 00:04:52;;;;;;;41.38;22.70;;;-0.40;99.90;;;;;;5000029;28;20220;-88
2021/12/23 00:07:23;;;;;;;44.90;23.40;;;-0.40;99.90;;;;;;5007380;28;20710;-89
2021/12/23 00:12:49;;;;;;;42.55;21.92;;;-0.40;99.90;;;;;;4975917;29;20203;-88
2021/12/23 00:15:32;;;;;;;45.30;21.92;;;-0.40;99.90;;;;;;4962754;29;20405;-88
2021/12/23 00:18:18;;;;;;;41.45;22.58;;;-0.60;99.90;;;;;;4997174;28;20231;-89
2021/12/23 00:24:10;;;;;;;41.90;20.67;;;-0.30;99.90;;;;;;5010426;28;20204;-89
2021/12/23 00:27:35;;;;;;;47.88;22.55;;;-0.20;99.90;;;;;;4990160;28;20220;-88
2021/12/23 00:30:13;;;;;;;40.35;21.33;;;-0.40;99.90;;;;;;5004371;28;20208;-87
2021/12/23 00:32:42;;;;;;;37.45;20.15;;;-0.50;99.90;;;;;;5002950;28;20220;-88
2021/12/23 00:35:41;;;;;;;36.92;20.35;;;-0.50;99.90;;;;;;5006737;28;20240;-88
2021/12/23 00:41:49;;;;;;;41.30;22.70;;;-0.20;99.90;;;;;;4950808;29;20204;-89
2021/12/23 00:44:38;;;;;;;;;;;;;;;;;;;;;
2021/12/23 01:00:40;;;;;;;40.60;21.70;;;-0.50;99.90;;;;;;4952674;28;20363;-89
2021/12/23 01:06:29;;;;;;;44.80;23.05;;;-0.50;99.90;;;;;;4998736;28;20226;-88
2021/12/23 01:09:11;;;;;;;43.80;21.63;;;-0.40;99.90;;;;;;4998691;28;20298;-88
2021/12/23 01:11:48;;;;;;;47.40;23.88;;;-0.60;99.90;;;;;;4998727;28;20235;-88
2021/12/23 01:14:43;;;;;;;43.13;21.50;;;-0.60;99.90;;;;;;4997520;28;20221;-88
2021/12/23 01:17:52;;;;;;;40.47;22.27;;;-0.50;99.90;;;;;;4995353;28;20626;-87
2021/12/23 01:21:03;;;;;;;45.78;23.42;;;-0.50;99.90;;;;;;4999841;28;20651;-88
2021/12/23 01:23:41;;;;;;;36.70;20.38;;;-0.40;99.90;;;;;;5007421;28;20238;-85
2021/12/23 01:26:23;;;;;;;44.53;22.92;;;-0.90;99.90;;;;;;5018774;28;20191;-87
2021/12/23 01:35:00;;;;;;;41.75;23.20;;;-0.50;99.90;;;;;;4990591;28;20233;-87
2021/12/23 01:37:47;;;;;;;49.30;23.20;;;-0.40;99.90;;;;;;4999545;28;20217;-87
2021/12/23 01:40:54;;;;;;;42.05;21.95;;;-0.50;99.90;;;;;;4999330;28;20211;-87
2021/12/23 01:43:43;;;;;;;40.40;22.95;;;-0.40;99.90;;;;;;5010590;28;20205;-87
2021/12/23 01:46:21;;;;;;;40.50;22.67;;;-0.40;99.90;;;;;;5009094;28;20212;-87
2021/12/23 01:48:55;;;;;;;39.15;21.90;;;-0.60;99.90;;;;;;5009974;28;20278;-88
2021/12/23 01:51:45;;;;;;;45.13;22.77;;;-0.40;99.90;;;;;;5002088;28;20228;-88
2021/12/23 01:54:35;;;;;;;44.03;21.08;;;-0.30;99.90;;;;;;5000779;28;20653;-88
2021/12/23 01:57:06;;;;;;;44.67;23.15;;;-0.40;99.90;;;;;;5006667;28;20222;-88
2021/12/23 01:59:59;;;;;;;40.40;21.30;;;-0.20;99.90;;;;;;5012768;28;20195;-88
2021/12/23 02:02:44;;;;;;;41.22;22.02;;;-0.30;99.90;;;;;;4999177;28;20240;-88
2021/12/23 02:05:37;;;;;;;42.90;21.75;;;-0.30;99.90;;;;;;4998128;28;20279;-88
2021/12/23 02:08:17;;;;;;;36.42;20.95;;;-0.30;99.90;;;;;;4998088;28;20558;-86
2021/12/23 02:14:15;;;;;;;39.88;20.35;;;-0.20;99.90;;;;;;4981599;28;20214;-89
2021/12/23 02:17:09;;;;;;;41.08;20.90;;;0.00;99.90;;;;;;4997798;28;20213;-89
2021/12/23 02:19:56;;;;;;;40.45;20.02;;;0.00;99.90;;;;;;4997597;28;20209;-89
2021/12/23 02:25:35;;;;;;;34.88;19.13;;;-0.10;99.90;;;;;;4979274;28;20205;-88
2021/12/23 02:28:35;;;;;;;41.20;21.40;;;0.00;99.90;;;;;;5001843;28;20739;-89
2021/12/23 02:31:05;;;;;;;37.75;19.33;;;-0.20;99.90;;;;;;4998053;28;20324;-89
2021/12/23 02:36:46;;;;;;;41.30;20.52;;;-0.10;99.90;;;;;;5011314;28;20225;-88
2021/12/23 02:39:28;;;;;;;40.97;21.73;;;-0.20;99.90;;;;;;4998967;28;20364;-89
2021/12/23 02:42:24;;;;;;;35.35;19.10;;;-0.30;99.90;;;;;;5008603;28;20228;-88
2021/12/23 02:44:55;;;;;;;37.20;19.73;;;-0.20;99.90;;;;;;5007167;28;20198;-88
2021/12/23 02:47:46;;;;;;;39.10;21.20;;;-0.20;99.90;;;;;;4996951;28;20666;-88
2021/12/23 02:50:32;;;;;;;40.72;20.77;;;-0.20;99.90;;;;;;5017145;28;20209;-87
2021/12/23 02:53:11;;;;;;;36.10;20.13;;;-0.10;99.90;;;;;;5006731;28;20209;-88
2021/12/23 02:56:14;;;;;;;37.67;20.15;;;-0.20;99.90;;;;;;5001263;28;20256;-89
2021/12/23 02:58:52;;;;;;;32.60;17.33;;;-0.10;99.90;;;;;;5002027;28;20203;-88
2021/12/23 03:01:46;;;;;;;40.83;20.13;;;-0.10;99.90;;;;;;5000995;28;20249;-89
2021/12/23 03:04:44;;;;;;;35.65;19.67;;;-0.30;99.90;;;;;;5000542;28;20214;-89
2021/12/23 03:07:47;;;;;;;41.17;20.35;;;-0.20;99.90;;;;;;5010856;28;20281;-88
2021/12/23 03:10:26;;;;;;;36.67;18.77;;;-0.10;99.90;;;;;;4999182;28;20687;-88
2021/12/23 03:13:18;;;;;;;;;;;;;;;;;;;;;
2021/12/23 03:15:52;;;;;;;37.92;19.58;;;-0.20;99.90;;;;;;4991836;28;20296;-88
2021/12/23 03:18:23;;;;;;;32.03;18.98;;;-0.20;99.90;;;;;;5002011;28;20211;-88
2021/12/23 03:21:02;;;;;;;35.10;18.60;;;-0.30;99.90;;;;;;5000565;28;20234;-89
2021/12/23 03:24:00;;;;;;;33.67;20.02;;;0.00;99.90;;;;;;5001670;28;20676;-88
2021/12/23 03:36:59;;;;;;;34.15;20.98;;;0.10;99.90;;;;;;5007364;28;20672;-89
2021/12/23 03:39:43;;;;;;;36.60;20.45;;;0.30;99.90;;;;;;4987204;28;20214;-88
2021/12/23 03:48:43;;;;;;;30.60;18.65;;;-0.10;99.90;;;;;;5009191;28;20214;-88
2021/12/23 03:51:22;;;;;;;35.50;17.98;;;-0.20;99.90;;;;;;5016443;28;20288;-88
2021/12/23 03:57:19;;;;;;;27.38;16.25;;;0.20;99.90;;;;;;5012216;28;20200;-88
2021/12/23 04:06:26;;;;;;;36.50;17.45;;;0.20;99.90;;;;;;5018463;28;20193;-87
2021/12/23 04:09:20;;;;;;;35.35;18.05;;;0.10;99.90;;;;;;5004487;28;20244;-87
2021/12/23 04:12:26;;;;;;;34.72;15.80;;;0.20;99.90;;;;;;5000360;28;20525;-88
2021/12/23 04:21:51;;;;;;;29.13;15.68;;;0.20;99.90;;;;;;5017549;28;20212;-87
2021/12/23 04:24:48;;;;;;;29.45;16.15;;;0.10;99.90;;;;;;5019854;28;20207;-88
2021/12/23 04:27:35;;;;;;;36.28;18.85;;;-0.10;99.90;;;;;;5012772;28;20202;-88
2021/12/23 04:30:13;;;;;;;29.65;15.52;;;-0.10;99.90;;;;;;5020071;28;20210;-85
2021/12/23 04:32:47;;;;;;;34.55;15.70;;;0.00;99.90;;;;;;5020045;28;20225;-87
2021/12/23 04:35:30;;;;;;;34.13;17.90;;;0.00;99.90;;;;;;5008559;28;20250;-88
2021/12/23 04:38:00;;;;;;;29.90;15.15;;;0.00;99.90;;;;;;5003025;28;20252;-88
2021/12/23 04:40:41;;;;;;;;;;;;;;;;;;;;;
2021/12/23 04:43:55;;;;;;;;;;;;;;;;;;;;;
2021/12/23 04:46:44;;;;;;;33.08;16.45;;;0.30;99.90;;;;;;5017576;28;20203;-88
2021/12/23 04:49:22;;;;;;;24.33;12.63;;;0.40;99.90;;;;;;4999850;28;20235;-90
2021/12/23 04:52:47;;;;;;;31.23;16.95;;;0.40;99.90;;;;;;4999424;28;20476;-89
2021/12/23 05:10:26;;;;;;;34.60;18.38;;;0.40;99.90;;;;;;4986896;23;20253;-79
2021/12/23 05:12:53;;;;;;;28.63;15.95;;;0.40;99.90;;;;;;5000751;28;20283;-79
2021/12/23 05:15:21;;;;;;;28.85;15.40;;;0.40;99.90;;;;;;4994613;28;20290;-80
2021/12/23 05:17:48;;;;;;;29.73;15.13;;;0.60;99.90;;;;;;4998128;28;20675;-79
2021/12/23 05:20:18;;;;;;;32.08;16.50;;;0.70;99.90;;;;;;5001820;28;20586;-79
2021/12/23 05:22:47;;;;;;;32.50;16.90;;;0.80;99.90;;;;;;4997945;28;20262;-79
2021/12/23 05:25:14;;;;;;;29.52;15.70;;;0.50;99.90;;;;;;4996968;28;20298;-80
2021/12/23 05:27:41;;;;;;;34.20;17.83;;;0.60;99.90;;;;;;4996683;28;20307;-81
2021/12/23 05:30:11;;;;;;;31.25;16.20;;;0.50;99.90;;;;;;4995924;28;20523;-79
2021/12/23 05:32:38;;;;;;;31.92;16.23;;;0.50;99.90;;;;;;4995711;28;20549;-79
2021/12/23 05:35:06;;;;;;;32.88;16.45;;;0.70;99.90;;;;;;4996983;28;20212;-80
2021/12/23 05:37:33;;;;;;;28.73;15.43;;;0.40;99.90;;;;;;4998648;28;20204;-79
2021/12/23 05:40:01;;;;;;;32.38;16.85;;;0.60;99.90;;;;;;5001790;28;20228;-79
2021/12/23 05:42:28;;;;;;;30.52;16.25;;;0.30;99.90;;;;;;5001702;28;20287;-79
2021/12/23 05:44:55;;;;;;;31.67;16.90;;;0.60;99.90;;;;;;4997472;28;20646;-79
2021/12/23 05:47:22;;;;;;;33.78;15.45;;;0.60;99.90;;;;;;4996699;28;20212;-79
2021/12/23 05:49:49;;;;;;;29.55;16.25;;;0.40;99.90;;;;;;4996396;28;20235;-79
2021/12/23 05:52:16;;;;;;;27.25;14.90;;;0.70;99.90;;;;;;4996317;28;20322;-80
2021/12/23 05:54:43;;;;;;;37.03;17.45;;;0.70;99.90;;;;;;4996528;28;20283;-80
2021/12/23 05:57:11;;;;;;;31.23;15.57;;;0.70;99.90;;;;;;4997120;28;20212;-80
2021/12/23 05:59:38;;;;;;;28.00;15.30;;;0.50;99.90;;;;;;5003027;28;20205;-79
2021/12/23 06:02:06;;;;;;;29.27;16.92;;;0.60;99.90;;;;;;5008245;28;20234;-80
2021/12/23 06:04:33;;;;;;;33.10;17.42;;;0.60;99.90;;;;;;5003352;28;20303;-81
2021/12/23 06:07:00;;;;;;;32.30;18.27;;;0.90;99.90;;;;;;5005241;28;20211;-79
2021/12/23 06:09:27;;;;;;;31.48;15.52;;;0.60;99.90;;;;;;5005221;28;20299;-80
2021/12/23 06:11:54;;;;;;;32.65;16.90;;;0.70;99.90;;;;;;4998254;28;20736;-80
2021/12/23 06:14:22;;;;;;;31.40;16.98;;;0.50;99.90;;;;;;5001110;28;20303;-80
2021/12/23 06:16:49;;;;;;;32.38;15.95;;;0.50;99.90;;;;;;4997386;28;20245;-81
2021/12/23 06:19:17;;;;;;;30.27;16.20;;;0.80;99.90;;;;;;4995706;28;20223;-80
2021/12/23 06:21:44;;;;;;;32.10;17.00;;;0.60;99.90;;;;;;4995342;28;20595;-80
2021/12/23 06:24:10;;;;;;;30.73;15.82;;;0.50;99.90;;;;;;5000943;28;20215;-80
2021/12/23 06:26:37;;;;;;;34.90;17.38;;;0.70;99.90;;;;;;5014244;28;20292;-80
2021/12/23 06:29:04;;;;;;;35.67;18.02;;;0.90;99.90;;;;;;5013459;28;20291;-80
2021/12/23 06:31:33;;;;;;;35.75;18.48;;;0.50;99.90;;;;;;5000981;28;20325;-80
2021/12/23 06:34:00;;;;;;;31.92;17.10;;;0.50;99.90;;;;;;5000218;28;20208;-80
2021/12/23 06:36:26;;;;;;;34.70;17.15;;;0.30;99.90;;;;;;5000597;28;20210;-80
2021/12/23 06:38:53;;;;;;;28.23;15.35;;;0.30;99.90;;;;;;5000299;28;20234;-81
2021/12/23 06:41:20;;;;;;;30.75;16.33;;;0.40;99.90;;;;;;5000209;28;20241;-81
2021/12/23 06:43:48;;;;;;;34.33;17.38;;;0.50;99.90;;;;;;4999684;28;20241;-80
2021/12/23 06:46:14;;;;;;;31.13;17.50;;;0.40;99.90;;;;;;5000924;28;20208;-80
2021/12/23 06:48:43;;;;;;;31.15;17.48;;;0.60;99.90;;;;;;4999582;28;20249;-81
2021/12/23 06:51:10;;;;;;;35.20;18.13;;;0.50;99.90;;;;;;5005017;28;20227;-79
2021/12/23 06:53:38;;;;;;;30.67;16.80;;;0.50;99.90;;;;;;5011888;28;20239;-80
2021/12/23 06:56:05;;;;;;;32.10;17.08;;;0.70;99.90;;;;;;5000665;28;20208;-80
2021/12/23 06:58:33;;;;;;;40.80;18.08;;;0.80;99.90;;;;;;5000228;28;20216;-80
2021/12/23 07:01:00;;;;;;;27.52;16.40;;;0.50;99.90;;;;;;4999970;28;20592;-81
2021/12/23 07:03:39;;;;;;;33.53;16.88;;;0.60;99.90;;;;;;5000092;28;20231;-80
2021/12/23 07:06:07;;;;;;;31.10;16.23;;;0.70;99.90;;;;;;5000171;28;20514;-80
2021/12/23 07:08:37;;;;;;;31.45;17.52;;;0.60;99.90;;;;;;5001678;28;20225;-80
2021/12/23 07:11:05;;;;;;;34.17;16.95;;;0.80;99.90;;;;;;5014001;28;20263;-79
2021/12/23 07:13:32;;;;;;;34.60;17.88;;;0.70;99.90;;;;;;5008110;28;20266;-80
2021/12/23 07:16:01;;;;;;;33.85;16.42;;;0.90;99.90;;;;;;5003020;28;20298;-81
2021/12/23 07:18:27;;;;;;;29.88;16.83;;;1.00;99.90;;;;;;4999703;28;20221;-80
2021/12/23 07:20:54;;;;;;;35.72;17.77;;;1.00;99.90;;;;;;4999349;28;20258;-80
2021/12/23 07:23:22;;;;;;;35.90;17.73;;;0.80;99.90;;;;;;4999306;28;20218;-80
2021/12/23 07:25:49;;;;;;;30.77;16.80;;;1.00;99.90;;;;;;4999542;28;20228;-80
2021/12/23 07:28:17;;;;;;;38.10;18.55;;;0.90;99.90;;;;;;5007968;28;20275;-79
2021/12/23 07:30:44;;;;;;;29.20;15.95;;;0.80;99.90;;;;;;5013602;28;20295;-79
2021/12/23 07:33:11;;;;;;;35.03;17.95;;;0.90;99.90;;;;;;5012110;28;20212;-79
2021/12/23 07:35:37;;;;;;;35.33;17.33;;;0.80;99.90;;;;;;5011765;28;20215;-80
2021/12/23 07:38:04;;;;;;;31.13;16.48;;;0.80;99.90;;;;;;5004295;28;20694;-80
2021/12/23 07:40:32;;;;;;;32.13;17.17;;;0.90;99.90;;;;;;4999871;28;20211;-80
2021/12/23 07:43:09;;;;;;;31.77;17.23;;;0.90;99.90;;;;;;5011945;28;20215;-79
2021/12/23 07:45:38;;;;;;;35.63;19.10;;;1.00;99.90;;;;;;5007174;28;20518;-80
2021/12/23 07:48:05;;;;;;;33.03;18.08;;;1.00;99.90;;;;;;5000418;28;20305;-80
2021/12/23 07:50:32;;;;;;;37.17;16.75;;;1.00;99.90;;;;;;5006848;28;20296;-80
2021/12/23 07:52:59;;;;;;;32.15;17.13;;;1.00;99.90;;;;;;5003017;28;20303;-80
2021/12/23 07:55:26;;;;;;;37.20;19.48;;;0.90;99.90;;;;;;5010230;28;20231;-80
2021/12/23 07:57:54;;;;;;;31.40;17.38;;;0.90;99.90;;;;;;5007093;28;20224;-79
2021/12/23 08:00:21;;;;;;;26.70;16.13;;;0.90;99.90;;;;;;5002764;28;20211;-80
2021/12/23 08:02:48;;;;;;;32.25;16.13;;;1.20;99.90;;;;;;5002734;28;20212;-80
2021/12/23 08:05:15;;;;;;;31.90;17.63;;;1.00;99.90;;;;;;5009863;28;20219;-80
2021/12/23 08:07:42;;;;;;;30.58;16.55;;;1.20;99.90;;;;;;5000646;28;20215;-80
2021/12/23 08:10:10;;;;;;;33.92;17.17;;;1.10;99.90;;;;;;4998946;28;20684;-80
2021/12/23 08:12:37;;;;;;;29.88;17.55;;;1.10;99.90;;;;;;4998137;28;20239;-80
2021/12/23 08:15:06;;;;;;;33.63;17.27;;;1.10;99.90;;;;;;4998687;28;20298;-80
2021/12/23 08:17:33;;;;;;;29.63;15.10;;;1.30;99.90;;;;;;4999255;28;20283;-80
2021/12/23 08:20:00;;;;;;;32.40;16.30;;;1.40;99.90;;;;;;5000165;28;20271;-80
2021/12/23 08:22:27;;;;;;;31.60;16.85;;;1.40;99.90;;;;;;4998943;28;20318;-80
2021/12/23 08:24:54;;;;;;;31.20;15.98;;;1.30;99.90;;;;;;4998698;28;20215;-80
2021/12/23 08:27:25;;;;;;;32.38;15.50;;;1.60;99.90;;;;;;4997951;28;20303;-80
2021/12/23 08:29:52;;;;;;;31.45;17.10;;;1.70;99.90;;;;;;4997445;28;20213;-80
2021/12/23 08:32:20;;;;;;;27.65;14.52;;;1.80;99.90;;;;;;4998252;28;20324;-80
2021/12/23 08:34:47;;;;;;;28.08;14.45;;;2.10;99.90;;;;;;5009104;28;20208;-80
2021/12/23 08:37:15;;;;;;;27.80;13.95;;;2.00;99.90;;;;;;5001554;28;20204;-81
2021/12/23 08:39:43;;;;;;;33.38;15.50;;;2.10;99.90;;;;;;5001364;28;20298;-81
2021/12/23 08:42:11;;;;;;;27.33;14.70;;;2.40;99.90;;;;;;5001987;28;20319;-81
2021/12/23 08:44:40;;;;;;;28.20;15.40;;;2.40;99.90;;;;;;5000767;28;20208;-81
2021/12/23 08:47:07;;;;;;;25.38;14.73;;;2.40;99.90;;;;;;4999999;28;20215;-82
2021/12/23 08:49:35;;;;;;;28.42;13.80;;;2.40;99.90;;;;;;5009026;28;20323;-80
2021/12/23 08:52:02;;;;;;;28.25;14.65;;;2.60;99.90;;;;;;5003377;28;20282;-81
2021/12/23 08:54:29;;;;;;;26.75;14.57;;;2.60;99.90;;;;;;4998431;28;20204;-81
2021/12/23 08:56:56;;;;;;;27.15;14.90;;;2.60;99.90;;;;;;4997717;28;20208;-82
2021/12/23 08:59:23;;;;;;;24.20;12.88;;;2.80;99.90;;;;;;4997062;28;20585;-80
2021/12/23 09:01:50;;;;;;;28.75;15.30;;;2.80;99.90;;;;;;4997573;28;20234;-80
2021/12/23 09:04:17;;;;;;;29.55;16.38;;;2.70;99.90;;;;;;5000522;28;20212;-79
2021/12/23 09:06:45;;;;;;;27.50;13.85;;;2.50;99.90;;;;;;5001451;28;20204;-81
2021/12/23 09:09:12;;;;;;;26.42;15.30;;;2.60;99.90;;;;;;4997154;28;20235;-80
2021/12/23 09:11:39;;;;;;;24.17;15.25;;;2.80;99.90;;;;;;4997094;28;20319;-81
2021/12/23 09:14:06;;;;;;;22.95;13.35;;;2.80;99.90;;;;;;4996785;28;20310;-80
2021/12/23 09:16:33;;;;;;;23.58;13.60;;;2.60;99.90;;;;;;4997655;28;20215;-80
2021/12/23 09:19:00;;;;;;;29.75;15.25;;;2.90;99.90;;;;;;5006274;28;20326;-80
2021/12/23 09:21:28;;;;;;;35.30;15.88;;;2.80;99.90;;;;;;4998950;28;20224;-80
2021/12/23 09:23:56;;;;;;;28.13;13.52;;;3.20;99.90;;;;;;4996668;28;20219;-80
2021/12/23 09:26:24;;;;;;;23.55;10.13;;;3.40;99.90;;;;;;4997445;28;20212;-80
2021/12/23 09:28:58;;;;;;;28.52;13.02;;;3.30;99.90;;;;;;4996788;28;20208;-80
2021/12/23 09:34:09;;;;;;;23.73;12.68;;;3.30;99.90;;;;;;4998606;28;20223;-80
2021/12/23 09:36:37;;;;;;;22.88;13.10;;;3.40;99.90;;;;;;4998387;28;20219;-82
2021/12/23 09:39:07;;;;;;;23.10;13.77;;;3.40;99.90;;;;;;5001502;28;20303;-80
2021/12/23 09:41:36;;;;;;;20.50;12.05;;;3.60;99.90;;;;;;5002342;28;20311;-80
2021/12/23 09:44:05;;;;;;;25.95;14.20;;;3.60;99.90;;;;;;5003487;28;20240;-80
2021/12/23 09:46:34;;;;;;;24.23;14.45;;;3.50;99.90;;;;;;5007057;28;20204;-79
2021/12/23 09:49:02;;;;;;;21.60;12.75;;;3.70;99.90;;;;;;4997314;28;20327;-80
2021/12/23 09:51:29;;;;;;;22.02;12.73;;;3.80;99.90;;;;;;4995794;28;20235;-79
2021/12/23 09:53:59;;;;;;;23.38;14.32;;;4.10;99.90;;;;;;4994624;28;20216;-80
2021/12/23 09:56:29;;;;;;;25.02;13.82;;;4.20;99.90;;;;;;4995791;28;20646;-80
2021/12/23 09:58:58;;;;;;;20.23;12.75;;;3.80;99.90;;;;;;4994746;28;20212;-80
2021/12/23 10:01:25;;;;;;;20.38;11.68;;;4.00;99.90;;;;;;4995755;28;20228;-80
2021/12/23 10:03:52;;;;;;;23.40;12.18;;;4.30;99.90;;;;;;5002053;28;20208;-80
2021/12/23 10:06:20;;;;;;;23.00;14.40;;;4.40;99.90;;;;;;5003379;28;20576;-80
2021/12/23 10:08:47;;;;;;;23.17;13.43;;;4.30;99.90;;;;;;4999121;28;20212;-80
2021/12/23 10:11:22;;;;;;;28.30;16.73;;;4.40;99.90;;;;;;4997391;28;20244;-80
2021/12/23 10:30:49;;;;;;;35.60;15.68;;;4.60;99.90;;;;;;5008672;28;20215;-81
2021/12/23 10:33:43;;;;;;;19.90;12.25;;;4.50;99.90;;;;;;4998062;28;20211;-80
2021/12/23 10:38:54;;;;;;;23.50;12.85;;;4.90;99.90;;;;;;5000677;28;20220;-80
2021/12/23 10:41:24;;;;;;;21.65;12.77;;;4.90;99.90;;;;;;4996827;28;20251;-81
2021/12/23 10:43:55;;;;;;;21.95;10.88;;;5.20;99.90;;;;;;4997516;28;20208;-81
2021/12/23 10:46:26;;;;;;;22.45;13.13;;;5.00;99.90;;;;;;5006000;28;20684;-80
2021/12/23 10:49:05;;;;;;;23.10;12.90;;;5.10;99.90;;;;;;5006443;28;20223;-81
2021/12/23 10:51:55;;;;;;;18.60;10.82;;;5.10;99.90;;;;;;4997486;28;20314;-81
2021/12/23 10:57:59;;;;;;;20.52;9.98;;;5.10;99.90;;;;;;4997370;28;20210;-81
2021/12/23 11:00:18;;;;;;;16.98;9.95;;;5.60;99.90;;;;;;4998462;28;20214;-82
2021/12/23 11:03:00;;;;;;;13.77;8.85;;;5.80;99.90;;;;;;4997025;28;20232;-81
2021/12/23 11:05:31;;;;;;;13.35;8.25;;;6.00;99.90;;;;;;5001876;28;20213;-80
2021/12/23 11:08:09;;;;;;;17.17;10.13;;;6.10;99.90;;;;;;5009131;28;20228;-80
2021/12/23 11:10:56;;;;;;;14.13;8.80;;;6.20;99.90;;;;;;4999814;28;20283;-80
2021/12/23 12:10:00;;;;;;;15.65;8.05;;;7.80;99.90;;;;;;5040118;28;20208;-89
2021/12/23 13:15:16;;;;;;;19.10;5.20;;;8.40;99.90;;;;;;4905609;29;20231;-87
2021/12/23 13:18:21;;;;;;;11.93;5.68;;;8.60;99.90;;;;;;4984289;28;20217;-89
2021/12/23 13:21:17;;;;;;;18.08;5.38;;;8.50;99.90;;;;;;5004061;28;20227;-88
2021/12/23 13:25:05;;;;;;;;;;;;;;;;;;;;;
2021/12/23 13:45:34;;;;;;;10.68;5.13;;;8.40;99.90;;;;;;4921126;28;20284;-88
2021/12/23 15:25:42;;;;;;;11.45;5.45;;;8.60;99.90;;;;;;4827015;29;20234;-88
2021/12/23 15:35:41;;;;;;;11.55;5.85;;;8.30;99.90;;;;;;4902791;29;20221;-89
2021/12/23 15:45:40;;;;;;;10.98;6.65;;;8.40;99.90;;;;;;4798518;30;20202;-88
2021/12/23 16:30:54;;;;;;;12.45;7.68;;;8.40;99.90;;;;;;3985391;26;20225;-89
2021/12/23 16:48:07;;;;;;;13.77;9.40;;;8.50;99.90;;;;;;4873449;28;20201;-89
2021/12/23 17:00:56;;;;;;;14.88;7.78;;;8.30;99.90;;;;;;4924414;29;20267;-88
2021/12/23 17:04:00;;;;;;;12.80;8.48;;;8.30;99.90;;;;;;4983900;28;20220;-89
2021/12/23 17:13:42;;;;;;;14.48;8.07;;;8.20;99.90;;;;;;4937769;23;20237;-81
2021/12/23 17:16:09;;;;;;;11.10;7.88;;;8.20;99.90;;;;;;4997126;28;20678;-81
2021/12/23 17:18:42;;;;;;;12.80;8.60;;;8.20;99.90;;;;;;4998045;28;20284;-81
2021/12/23 17:23:55;;;;;;;14.88;7.78;;;8.40;99.90;;;;;;4997239;28;20241;-81
2021/12/23 17:26:22;;;;;;;12.88;7.88;;;8.40;99.90;;;;;;4997973;28;20665;-80
2021/12/23 17:28:50;;;;;;;12.90;7.75;;;8.30;99.90;;;;;;4997197;28;20301;-80
2021/12/23 17:31:17;;;;;;;12.52;8.23;;;8.40;99.90;;;;;;4998537;28;20211;-82
2021/12/23 17:33:45;;;;;;;12.68;7.43;;;8.40;99.90;;;;;;4997869;28;20320;-81
2021/12/23 17:36:12;;;;;;;16.58;7.90;;;8.30;99.90;;;;;;4998145;28;20237;-80
2021/12/23 17:38:46;;;;;;;14.55;8.85;;;8.40;99.90;;;;;;5002936;28;20287;-80
2021/12/23 17:41:13;;;;;;;13.07;8.10;;;8.40;99.90;;;;;;5003624;28;20285;-81
2021/12/23 17:43:40;;;;;;;13.45;8.13;;;8.30;99.90;;;;;;5003427;28;20271;-80
2021/12/23 17:46:08;;;;;;;14.15;7.78;;;8.30;99.90;;;;;;4999066;28;20212;-80
2021/12/23 17:48:35;;;;;;;12.90;7.65;;;8.30;99.90;;;;;;4997515;28;20252;-81
2021/12/23 17:51:02;;;;;;;14.20;9.40;;;8.30;99.90;;;;;;5003874;28;20252;-81
2021/12/23 17:53:29;;;;;;;11.80;7.32;;;8.30;99.90;;;;;;4999282;28;20738;-80
2021/12/23 17:55:57;;;;;;;12.15;6.75;;;8.30;99.90;;;;;;4998797;28;20209;-80
2021/12/23 17:58:24;;;;;;;11.32;7.13;;;8.30;99.90;;;;;;4997886;28;20214;-79
2021/12/23 18:00:52;;;;;;;12.35;7.78;;;8.40;99.90;;;;;;4997846;28;20280;-80
2021/12/23 18:03:21;;;;;;;11.40;7.43;;;8.50;99.90;;;;;;5006249;28;20251;-79
2021/12/23 18:05:49;;;;;;;11.02;7.55;;;8.50;99.90;;;;;;5005128;28;20234;-81
2021/12/23 18:08:17;;;;;;;12.25;7.43;;;8.50;99.90;;;;;;5009230;28;20217;-79
2021/12/23 18:10:44;;;;;;;12.10;7.72;;;8.50;99.90;;;;;;4998598;28;20246;-80
2021/12/23 18:13:11;;;;;;;13.25;8.75;;;8.50;99.90;;;;;;4997622;28;20237;-80
2021/12/23 18:15:39;;;;;;;11.45;7.38;;;8.50;99.90;;;;;;4997855;28;20246;-81
2021/12/23 18:18:07;;;;;;;10.90;6.88;;;8.40;99.90;;;;;;4998711;28;20213;-81
2021/12/23 18:20:36;;;;;;;16.48;8.27;;;8.40;99.90;;;;;;5002097;28;20312;-80
2021/12/23 18:23:04;;;;;;;14.43;10.23;;;7.90;99.90;;;;;;5001455;28;20702;-81
2021/12/23 18:25:31;;;;;;;18.02;9.98;;;8.30;99.90;;;;;;5003115;28;20209;-80
2021/12/23 18:27:58;;;;;;;16.85;11.43;;;8.20;99.90;;;;;;5002791;28;20221;-81
2021/12/23 18:30:25;;;;;;;18.63;12.40;;;8.20;99.90;;;;;;5002748;28;20223;-81
2021/12/23 18:32:52;;;;;;;17.30;10.50;;;8.20;99.90;;;;;;5003610;28;20288;-81
2021/12/23 18:35:27;;;;;;;18.02;10.30;;;8.20;99.90;;;;;;5011046;28;20556;-80
2021/12/23 18:37:59;;;;;;;15.95;9.30;;;8.10;99.90;;;;;;5012181;28;20654;-79
2021/12/23 18:40:28;;;;;;;14.07;9.57;;;8.00;99.90;;;;;;5012528;28;20252;-80
2021/12/23 18:42:56;;;;;;;14.95;8.80;;;7.50;99.90;;;;;;5009171;28;20220;-80
2021/12/23 18:45:26;;;;;;;18.73;9.70;;;7.80;99.90;;;;;;5000775;28;20216;-80
2021/12/23 18:47:54;;;;;;;17.55;10.27;;;7.80;99.90;;;;;;5000770;28;20217;-81
2021/12/23 18:50:24;;;;;;;14.70;9.25;;;7.70;99.90;;;;;;5000737;28;20225;-81
2021/12/23 18:52:51;;;;;;;13.13;8.45;;;7.60;99.90;;;;;;5001217;28;20298;-81
2021/12/23 18:55:20;;;;;;;12.05;8.52;;;7.70;99.90;;;;;;5000690;28;20221;-81
2021/12/23 18:57:46;;;;;;;13.52;8.63;;;7.70;99.90;;;;;;5001011;28;20215;-81
2021/12/23 19:00:18;;;;;;;16.63;9.57;;;7.50;99.90;;;;;;5000537;28;20619;-81
2021/12/23 19:03:00;;;;;;;16.23;10.52;;;7.60;99.90;;;;;;4999051;28;20231;-80
2021/12/23 19:05:31;;;;;;;18.98;10.38;;;7.40;99.90;;;;;;4998840;28;20193;-81
2021/12/23 19:07:58;;;;;;;17.17;11.13;;;7.20;99.90;;;;;;5003106;28;20668;-81
2021/12/23 19:10:29;;;;;;;16.55;10.63;;;7.30;99.90;;;;;;5003482;28;20215;-81
2021/12/23 19:12:56;;;;;;;15.10;10.77;;;7.20;99.90;;;;;;5001404;28;20332;-81
2021/12/23 19:15:23;;;;;;;19.23;10.02;;;7.20;99.90;;;;;;5000056;28;20193;-81
2021/12/23 19:17:50;;;;;;;16.20;10.25;;;7.30;99.90;;;;;;5001057;28;20250;-81
2021/12/23 19:20:19;;;;;;;16.60;9.80;;;7.20;99.90;;;;;;5000196;28;20213;-81
2021/12/23 19:22:46;;;;;;;15.68;9.73;;;7.40;99.90;;;;;;4999463;28;20761;-81
2021/12/23 19:25:13;;;;;;;21.75;11.57;;;7.50;99.90;;;;;;5000138;28;20224;-81
2021/12/23 19:27:41;;;;;;;16.25;10.13;;;7.70;99.90;;;;;;4999568;28;20292;-79
2021/12/23 19:30:11;;;;;;;19.27;11.20;;;8.00;99.90;;;;;;5001556;28;20699;-79
2021/12/23 19:32:38;;;;;;;15.35;10.82;;;7.40;99.90;;;;;;5000724;28;20360;-80
2021/12/23 19:35:07;;;;;;;15.68;9.73;;;7.60;99.90;;;;;;4999806;28;20244;-80
2021/12/23 19:37:34;;;;;;;14.52;8.57;;;8.00;99.90;;;;;;5000392;28;20256;-80
2021/12/23 19:40:00;;;;;;;18.00;10.15;;;8.10;99.90;;;;;;4999363;28;20224;-81
2021/12/23 19:42:27;;;;;;;13.45;8.02;;;8.30;99.90;;;;;;4999970;28;20309;-80
2021/12/23 19:44:56;;;;;;;13.00;8.57;;;8.00;99.90;;;;;;5004729;28;20214;-80
2021/12/23 19:47:23;;;;;;;10.00;6.50;;;8.50;99.90;;;;;;5004361;28;20209;-81
2021/12/23 19:49:50;;;;;;;10.13;6.00;;;8.60;99.90;;;;;;5000085;28;20210;-79
2021/12/23 19:52:17;;;;;;;9.95;6.60;;;8.70;99.90;;;;;;5000050;28;20657;-81
2021/12/23 19:54:44;;;;;;;10.02;6.85;;;8.80;99.90;;;;;;5003701;28;20296;-80
2021/12/23 19:57:11;;;;;;;12.20;6.75;;;8.90;99.90;;;;;;5004574;28;20233;-81
2021/12/23 19:59:38;;;;;;;10.52;5.30;;;8.90;99.90;;;;;;5001065;28;20706;-81
2021/12/23 20:02:06;;;;;;;8.23;4.82;;;8.90;99.90;;;;;;5001465;28;20656;-81
2021/12/23 20:04:33;;;;;;;11.32;5.18;;;8.90;99.90;;;;;;5001794;28;20297;-81
2021/12/23 20:06:59;;;;;;;8.20;3.95;;;9.00;99.90;;;;;;5001264;28;20690;-81
2021/12/23 20:09:26;;;;;;;8.10;4.68;;;9.10;99.90;;;;;;5000685;28;20205;-82
2021/12/23 20:11:53;;;;;;;8.00;4.78;;;9.20;99.90;;;;;;5000654;28;20290;-81
2021/12/23 20:14:20;;;;;;;7.90;3.90;;;9.30;99.90;;;;;;4999296;28;20740;-81
2021/12/23 20:16:47;;;;;;;8.45;4.32;;;9.30;99.90;;;;;;5000680;28;20206;-82
2021/12/23 20:19:15;;;;;;;10.00;4.65;;;9.40;99.90;;;;;;4999503;28;20650;-82
2021/12/23 20:21:42;;;;;;;6.55;4.47;;;9.50;99.90;;;;;;4999992;28;20214;-81
2021/12/23 20:24:09;;;;;;;24.15;6.38;;;9.50;99.90;;;;;;5001902;28;20250;-81
2021/12/23 20:26:36;;;;;;;7.25;3.80;;;9.50;99.90;;;;;;5014746;28;20727;-80
2021/12/23 20:29:04;;;;;;;7.28;3.97;;;9.70;99.90;;;;;;5015439;28;20233;-80
2021/12/23 20:31:30;;;;;;;9.25;5.53;;;9.60;99.90;;;;;;5014904;28;20281;-80
2021/12/23 20:33:58;;;;;;;7.40;4.20;;;9.70;99.90;;;;;;5014852;28;20256;-80
2021/12/23 20:36:26;;;;;;;6.70;3.80;;;9.70;99.90;;;;;;5012845;28;20533;-82
2021/12/23 20:38:53;;;;;;;8.30;4.03;;;9.70;99.90;;;;;;4999261;28;20221;-81
2021/12/23 20:41:20;;;;;;;9.85;4.60;;;9.70;99.90;;;;;;4998758;28;20206;-79